Time,TemperatureF,DewpointF,PressureIn,WindDirection,WindDirectionDegrees,WindSpeedMPH,WindSpeedGustMPH,Humidity,HourlyPrecipIn,Conditions,Clouds,dailyrainin,SoftwareType,DateUTC
2013-01-27 00:07:00,47.4,37.0,29.84,South,172,4.0,5.0,67,0.00,,,0.00,Wunderground v.1.15,2013-01-27 07:07:00,
2013-01-27 00:17:00,47.5,37.5,29.83,SE,137,6.0,9.0,68,0.00,,,0.00,Wunderground v.1.15,2013-01-27 07:17:00,
2013-01-27 00:27:00,46.8,37.5,29.84,SE,134,7.0,8.0,70,0.00,,,0.00,Wunderground v.1.15,2013-01-27 07:27:00,
2013-01-27 00:32:00,46.9,38.0,29.84,SE,140,7.0,7.0,71,0.00,,,0.00,Wunderground v.1.15,2013-01-27 07:32:00,
2013-01-27 00:42:00,47.1,38.5,29.84,SSE,165,8.0,11.0,72,0.00,,,0.00,Wunderground v.1.15,2013-01-27 07:42:00,
2013-01-27 00:47:00,47.1,38.5,29.84,SSE,159,8.0,11.0,72,0.00,,,0.00,Wunderground v.1.15,2013-01-27 07:47:00,
2013-01-27 00:52:00,46.9,38.3,29.84,SSE,154,7.0,7.0,72,0.00,,,0.00,Wunderground v.1.15,2013-01-27 07:52:00,
2013-01-27 01:02:00,47.0,38.8,29.83,SSE,152,6.0,9.0,73,0.00,,,0.00,Wunderground v.1.15,2013-01-27 08:02:00,
2013-01-27 01:12:00,47.0,39.1,29.83,SE,129,6.0,6.0,74,0.00,,,0.00,Wunderground v.1.15,2013-01-27 08:12:00,
2013-01-27 01:17:00,46.8,39.3,29.84,South,169,6.0,6.0,75,0.00,,,0.00,Wunderground v.1.15,2013-01-27 08:17:00,
2013-01-27 01:22:00,46.7,39.5,29.84,SSE,155,6.0,7.0,76,0.00,,,0.00,Wunderground v.1.15,2013-01-27 08:22:00,
2013-01-27 01:32:00,46.5,39.7,29.84,SSE,159,8.0,8.0,77,0.00,,,0.00,Wunderground v.1.15,2013-01-27 08:32:00,
2013-01-27 01:37:00,46.4,39.9,29.84,South,182,8.0,8.0,78,0.00,,,0.00,Wunderground v.1.15,2013-01-27 08:37:00,
2013-01-27 01:47:00,46.3,40.1,29.84,SSE,150,6.0,8.0,79,0.00,,,0.00,Wunderground v.1.15,2013-01-27 08:47:00,
2013-01-27 01:52:00,46.2,40.0,29.84,SE,136,7.0,11.0,79,0.00,,,0.00,Wunderground v.1.15,2013-01-27 08:52:00,
2013-01-27 02:02:00,45.9,40.1,29.84,SSE,156,7.0,7.0,80,0.00,,,0.00,Wunderground v.1.15,2013-01-27 09:02:00,
2013-01-27 02:07:00,45.8,40.0,29.84,SSE,156,6.0,7.0,80,0.00,,,0.00,Wunderground v.1.15,2013-01-27 09:07:00,
2013-01-27 02:17:00,45.6,39.8,29.84,SSE,163,4.0,6.0,80,0.00,,,0.00,Wunderground v.1.15,2013-01-27 09:17:00,
2013-01-27 02:22:00,45.5,39.7,29.84,South,180,5.0,5.0,80,0.00,,,0.00,Wunderground v.1.15,2013-01-27 09:22:00,
2013-01-27 02:27:00,45.4,39.6,29.84,SE,140,4.0,5.0,80,0.00,,,0.00,Wunderground v.1.15,2013-01-27 09:27:00,
2013-01-27 02:32:00,45.4,39.6,29.84,South,175,4.0,4.0,80,0.00,,,0.00,Wunderground v.1.15,2013-01-27 09:32:00,
2013-01-27 02:42:00,45.3,39.2,29.84,SSE,154,4.0,4.0,79,0.00,,,0.00,Wunderground v.1.15,2013-01-27 09:42:00,
2013-01-27 02:47:00,45.3,39.2,29.85,SSE,167,5.0,5.0,79,0.00,,,0.00,Wunderground v.1.15,2013-01-27 09:47:00,
2013-01-27 02:57:00,45.3,39.2,29.85,SE,136,3.0,5.0,79,0.00,,,0.00,Wunderground v.1.15,2013-01-27 09:57:00,
2013-01-27 03:02:00,45.4,39.3,29.84,SSE,160,4.0,6.0,79,0.00,,,0.00,Wunderground v.1.15,2013-01-27 10:02:00,
2013-01-27 03:12:00,45.6,39.1,29.84,SSE,163,6.0,6.0,78,0.00,,,0.00,Wunderground v.1.15,2013-01-27 10:12:00,
2013-01-27 03:17:00,45.8,39.0,29.84,SSE,150,6.0,9.0,77,0.00,,,0.00,Wunderground v.1.15,2013-01-27 10:17:00,
2013-01-27 03:27:00,45.9,38.4,29.83,SSE,161,6.0,7.0,75,0.00,,,0.00,Wunderground v.1.15,2013-01-27 10:27:00,
2013-01-27 03:32:00,45.7,37.9,29.83,SSE,166,6.0,8.0,74,0.00,,,0.00,Wunderground v.1.15,2013-01-27 10:32:00,
2013-01-27 03:37:00,45.6,37.4,29.83,SSE,158,6.0,8.0,73,0.00,,,0.00,Wunderground v.1.15,2013-01-27 10:37:00,
2013-01-27 03:47:00,45.0,36.5,29.83,SSE,162,6.0,8.0,72,0.00,,,0.00,Wunderground v.1.15,2013-01-27 10:47:00,
2013-01-27 03:52:00,44.9,36.8,29.83,SE,139,7.0,7.0,73,0.00,,,0.00,Wunderground v.1.15,2013-01-27 10:52:00,
2013-01-27 03:57:00,44.8,36.7,29.84,South,177,6.0,7.0,73,0.00,,,0.00,Wunderground v.1.15,2013-01-27 10:57:00,
2013-01-27 04:07:00,44.7,36.6,29.84,SSE,155,6.0,6.0,73,0.00,,,0.00,Wunderground v.1.15,2013-01-27 11:07:00,
2013-01-27 04:17:00,44.6,37.5,29.83,SE,144,7.0,8.0,76,0.00,,,0.00,Wunderground v.1.15,2013-01-27 11:17:00,
2013-01-27 04:22:00,44.5,36.4,29.84,SSE,159,7.0,7.0,73,0.00,,,0.00,Wunderground v.1.15,2013-01-27 11:22:00,
2013-01-27 04:32:00,44.2,36.4,29.84,SE,140,6.0,6.0,74,0.00,,,0.00,Wunderground v.1.15,2013-01-27 11:32:00,
2013-01-27 04:37:00,44.0,36.2,29.84,SSE,164,6.0,6.0,74,0.00,,,0.00,Wunderground v.1.15,2013-01-27 11:37:00,
2013-01-27 04:47:00,43.8,36.4,29.84,South,171,6.0,6.0,75,0.00,,,0.00,Wunderground v.1.15,2013-01-27 11:47:00,
2013-01-27 04:57:00,43.6,36.5,29.83,SE,146,6.0,6.0,76,0.00,,,0.00,Wunderground v.1.15,2013-01-27 11:57:00,
2013-01-27 05:02:00,43.5,36.4,29.83,SE,133,6.0,6.0,76,0.00,,,0.00,Wunderground v.1.15,2013-01-27 12:02:00,
2013-01-27 05:12:00,43.6,36.5,29.83,SSE,166,7.0,7.0,76,0.00,,,0.00,Wunderground v.1.15,2013-01-27 12:12:00,
2013-01-27 05:17:00,43.7,36.3,29.83,SE,140,7.0,7.0,75,0.00,,,0.00,Wunderground v.1.15,2013-01-27 12:17:00,
2013-01-27 05:27:00,43.6,36.2,29.83,SE,139,5.0,7.0,75,0.00,,,0.00,Wunderground v.1.15,2013-01-27 12:27:00,
2013-01-27 05:32:00,43.6,36.2,29.84,SE,142,5.0,5.0,75,0.00,,,0.00,Wunderground v.1.15,2013-01-27 12:32:00,
2013-01-27 05:42:00,43.4,35.7,29.84,SE,142,4.0,5.0,74,0.00,,,0.00,Wunderground v.1.15,2013-01-27 12:42:00,
2013-01-27 05:47:00,43.4,35.7,29.84,SSE,165,5.0,6.0,74,0.00,,,0.00,Wunderground v.1.15,2013-01-27 12:47:00,
2013-01-27 05:57:00,43.7,36.0,29.84,SSE,153,8.0,14.0,74,0.00,,,0.00,Wunderground v.1.15,2013-01-27 12:57:00,
2013-01-27 06:02:00,43.7,35.6,29.83,SE,135,10.0,10.0,73,0.00,,,0.00,Wunderground v.1.15,2013-01-27 13:02:00,
2013-01-27 06:12:00,43.6,35.9,29.85,SSE,155,9.0,9.0,74,0.00,,,0.00,Wunderground v.1.15,2013-01-27 13:12:00,
2013-01-27 06:17:00,43.5,35.8,29.85,SE,138,8.0,9.0,74,0.00,,,0.00,Wunderground v.1.15,2013-01-27 13:17:00,
2013-01-27 06:26:00,43.3,35.6,29.86,SSE,150,7.0,10.0,74,0.00,,,0.00,Wunderground v.1.15,2013-01-27 13:26:00,
2013-01-27 06:32:00,43.2,35.8,29.86,SSE,159,7.0,7.0,75,0.00,,,0.00,Wunderground v.1.15,2013-01-27 13:32:00,
2013-01-27 06:37:00,43.1,35.7,29.86,SE,138,7.0,9.0,75,0.00,,,0.00,Wunderground v.1.15,2013-01-27 13:37:00,
2013-01-27 06:47:00,43.1,36.0,29.86,SE,132,7.0,9.0,76,0.00,,,0.00,Wunderground v.1.15,2013-01-27 13:47:00,
2013-01-27 06:57:00,43.1,36.0,29.86,SE,146,9.0,9.0,76,0.00,,,0.00,Wunderground v.1.15,2013-01-27 13:57:00,
2013-01-27 07:02:00,43.1,36.0,29.86,SE,131,9.0,10.0,76,0.00,,,0.00,Wunderground v.1.15,2013-01-27 14:02:00,
2013-01-27 07:07:00,43.1,36.0,29.86,SE,142,9.0,10.0,76,0.00,,,0.00,Wunderground v.1.15,2013-01-27 14:07:00,
2013-01-27 07:17:00,43.0,36.0,29.86,SE,143,8.0,8.0,76,0.00,,,0.00,Wunderground v.1.15,2013-01-27 14:17:00,
2013-01-27 07:27:00,43.1,35.7,29.86,SSE,163,8.0,10.0,75,0.00,,,0.00,Wunderground v.1.15,2013-01-27 14:27:00,
2013-01-27 07:32:00,43.3,35.9,29.86,SSE,148,7.0,11.0,75,0.00,,,0.00,Wunderground v.1.15,2013-01-27 14:32:00,
2013-01-27 07:42:00,43.2,35.8,29.87,SE,137,8.0,8.0,75,0.00,,,0.00,Wunderground v.1.15,2013-01-27 14:42:00,
2013-01-27 07:47:00,43.0,35.6,29.87,SSE,167,6.0,8.0,75,0.00,,,0.00,Wunderground v.1.15,2013-01-27 14:47:00,
2013-01-27 07:52:00,43.0,35.6,29.87,SE,146,6.0,10.0,75,0.00,,,0.00,Wunderground v.1.15,2013-01-27 14:52:00,
2013-01-27 08:02:00,42.9,35.5,29.87,SE,141,7.0,7.0,75,0.00,,,0.00,Wunderground v.1.15,2013-01-27 15:02:00,
2013-01-27 08:07:00,42.9,35.5,29.87,SSE,157,7.0,8.0,75,0.00,,,0.00,Wunderground v.1.15,2013-01-27 15:07:00,
2013-01-27 08:17:00,43.1,35.7,29.88,SE,144,7.0,10.0,75,0.00,,,0.00,Wunderground v.1.15,2013-01-27 15:17:00,
2013-01-27 08:22:00,43.3,35.6,29.88,SSE,157,7.0,11.0,74,0.00,,,0.00,Wunderground v.1.15,2013-01-27 15:22:00,
2013-01-27 08:32:00,43.4,35.7,29.88,SSE,152,7.0,7.0,74,0.00,,,0.00,Wunderground v.1.15,2013-01-27 15:32:00,
2013-01-27 08:37:00,44.1,36.0,29.88,SSE,150,8.0,8.0,73,0.00,,,0.00,Wunderground v.1.15,2013-01-27 15:37:00,
2013-01-27 08:47:00,45.2,36.4,29.88,SE,137,7.0,8.0,71,0.00,,,0.00,Wunderground v.1.15,2013-01-27 15:47:00,
2013-01-27 08:57:00,45.6,36.0,29.89,South,173,8.0,9.0,69,0.00,,,0.00,Wunderground v.1.15,2013-01-27 15:57:00,
2013-01-27 09:02:00,45.9,35.9,29.88,SE,138,9.0,9.0,68,0.00,,,0.00,Wunderground v.1.15,2013-01-27 16:02:00,
2013-01-27 09:12:00,46.5,36.1,29.89,SE,141,8.0,9.0,67,0.00,,,0.00,Wunderground v.1.15,2013-01-27 16:12:00,
2013-01-27 09:17:00,46.9,36.1,29.89,SSE,148,6.0,9.0,66,0.00,,,0.00,Wunderground v.1.15,2013-01-27 16:17:00,
2013-01-27 09:27:00,47.1,35.9,29.89,SE,124,7.0,9.0,65,0.00,,,0.00,Wunderground v.1.15,2013-01-27 16:27:00,
2013-01-27 09:37:00,47.9,36.7,29.89,South,188,5.0,8.0,65,0.00,,,0.00,Wunderground v.1.15,2013-01-27 16:37:00,
2013-01-27 09:42:00,48.2,36.6,29.89,South,178,5.0,5.0,64,0.00,,,0.00,Wunderground v.1.15,2013-01-27 16:42:00,
2013-01-27 09:52:00,49.0,36.5,29.90,South,169,4.0,4.0,62,0.00,,,0.00,Wunderground v.1.15,2013-01-27 16:52:00,
2013-01-27 09:57:00,49.2,36.7,29.90,SSW,197,5.0,6.0,62,0.00,,,0.00,Wunderground v.1.15,2013-01-27 16:57:00,
2013-01-27 10:07:00,49.9,37.0,29.90,SSW,211,5.0,8.0,61,0.00,,,0.00,Wunderground v.1.15,2013-01-27 17:07:00,
2013-01-27 10:12:00,49.7,36.8,29.89,SSW,201,5.0,5.0,61,0.00,,,0.00,Wunderground v.1.15,2013-01-27 17:12:00,
2013-01-27 10:21:00,50.1,37.2,29.89,SSW,211,5.0,5.0,61,0.00,,,0.00,Wunderground v.1.15,2013-01-27 17:21:00,
2013-01-27 10:27:00,50.3,37.4,29.89,SW,221,6.0,6.0,61,0.00,,,0.00,Wunderground v.1.15,2013-01-27 17:27:00,
2013-01-27 10:32:00,50.2,37.3,29.88,SE,137,6.0,7.0,61,0.00,,,0.00,Wunderground v.1.15,2013-01-27 17:32:00,
2013-01-27 10:42:00,50.9,37.5,29.88,SSE,149,5.0,8.0,60,0.00,,,0.00,Wunderground v.1.15,2013-01-27 17:42:00,
2013-01-27 10:47:00,51.2,37.4,29.88,South,179,4.0,8.0,59,0.00,,,0.00,Wunderground v.1.15,2013-01-27 17:47:00,
2013-01-27 10:56:00,51.5,37.6,29.88,South,180,6.0,6.0,59,0.00,,,0.00,Wunderground v.1.15,2013-01-27 17:56:00,
2013-01-27 11:02:00,51.8,37.5,29.88,South,184,6.0,7.0,58,0.00,,,0.00,Wunderground v.1.15,2013-01-27 18:02:00,
2013-01-27 11:07:00,51.6,37.7,29.88,South,178,6.0,7.0,59,0.00,,,0.00,Wunderground v.1.15,2013-01-27 18:07:00,
2013-01-27 11:12:00,51.8,37.5,29.88,SSE,150,7.0,7.0,58,0.00,,,0.00,Wunderground v.1.15,2013-01-27 18:12:00,
2013-01-27 11:22:00,52.6,37.3,29.87,SSE,156,6.0,6.0,56,0.00,,,0.00,Wunderground v.1.15,2013-01-27 18:22:00,
2013-01-27 11:27:00,52.3,37.5,29.87,South,176,7.0,7.0,57,0.00,,,0.00,Wunderground v.1.15,2013-01-27 18:27:00,
2013-01-27 11:36:00,52.0,37.7,29.87,SSE,159,6.0,9.0,58,0.00,,,0.00,Wunderground v.1.15,2013-01-27 18:36:00,
2013-01-27 11:42:00,52.1,37.8,29.86,SSE,159,7.0,7.0,58,0.00,,,0.00,Wunderground v.1.15,2013-01-27 18:42:00,
2013-01-27 11:47:00,52.3,37.5,29.86,SE,128,6.0,7.0,57,0.00,,,0.00,Wunderground v.1.15,2013-01-27 18:47:00,
2013-01-27 11:57:00,53.1,37.8,29.86,SSW,213,5.0,6.0,56,0.00,,,0.00,Wunderground v.1.15,2013-01-27 18:57:00,
2013-01-27 12:02:00,53.5,38.2,29.85,South,190,4.0,4.0,56,0.00,,,0.00,Wunderground v.1.15,2013-01-27 19:02:00,
2013-01-27 12:12:00,53.7,37.4,29.85,SW,232,5.0,10.0,54,0.00,,,0.00,Wunderground v.1.15,2013-01-27 19:12:00,
2013-01-27 12:17:00,53.8,38.0,29.84,SW,235,7.0,10.0,55,0.00,,,0.00,Wunderground v.1.15,2013-01-27 19:17:00,
2013-01-27 12:22:00,53.8,37.1,29.83,SW,226,7.0,12.0,53,0.00,,,0.00,Wunderground v.1.15,2013-01-27 19:22:00,
2013-01-27 12:27:00,53.6,37.3,29.83,SW,232,8.0,12.0,54,0.00,,,0.00,Wunderground v.1.15,2013-01-27 19:27:00,
2013-01-27 12:37:00,53.9,37.1,29.83,SW,233,7.0,11.0,53,0.00,,,0.00,Wunderground v.1.15,2013-01-27 19:37:00,
2013-01-27 12:47:00,55.1,37.3,29.82,SW,219,12.0,18.0,51,0.00,,,0.00,Wunderground v.1.15,2013-01-27 19:47:00,
2013-01-27 12:52:00,55.2,37.4,29.82,SW,217,13.0,18.0,51,0.00,,,0.00,Wunderground v.1.15,2013-01-27 19:52:00,
2013-01-27 12:57:00,55.5,37.1,29.82,SSW,202,11.0,18.0,50,0.00,,,0.00,Wunderground v.1.15,2013-01-27 19:57:00,
2013-01-27 13:06:00,55.9,36.5,29.81,West,264,10.0,14.0,48,0.00,,,0.00,Wunderground v.1.15,2013-01-27 20:06:00,
2013-01-27 13:12:00,55.8,36.4,29.81,SW,232,11.0,11.0,48,0.00,,,0.00,Wunderground v.1.15,2013-01-27 20:12:00,
2013-01-27 13:17:00,56.5,37.0,29.81,SW,233,10.0,11.0,48,0.00,,,0.00,Wunderground v.1.15,2013-01-27 20:17:00,
2013-01-27 13:26:00,56.5,36.5,29.80,SW,227,8.0,10.0,47,0.00,,,0.00,Wunderground v.1.15,2013-01-27 20:26:00,
2013-01-27 13:32:00,57.6,36.4,29.80,WSW,252,7.0,9.0,45,0.00,,,0.00,Wunderground v.1.15,2013-01-27 20:32:00,
2013-01-27 13:37:00,57.8,37.1,29.79,South,170,7.0,9.0,46,0.00,,,0.00,Wunderground v.1.15,2013-01-27 20:37:00,
2013-01-27 13:47:00,57.5,36.3,29.79,SSW,211,10.0,15.0,45,0.00,,,0.00,Wunderground v.1.15,2013-01-27 20:47:00,
2013-01-27 13:52:00,56.9,36.3,29.79,SW,217,11.0,11.0,46,0.00,,,0.00,Wunderground v.1.15,2013-01-27 20:52:00,
2013-01-27 14:02:00,56.6,34.9,29.79,SW,229,10.0,10.0,44,0.00,,,0.00,Wunderground v.1.15,2013-01-27 21:02:00,
2013-01-27 14:07:00,56.5,35.4,29.79,SW,219,12.0,13.0,45,0.00,,,0.00,Wunderground v.1.15,2013-01-27 21:07:00,
2013-01-27 14:12:00,57.0,35.9,29.79,SW,236,11.0,11.0,45,0.00,,,0.00,Wunderground v.1.15,2013-01-27 21:12:00,
2013-01-27 14:22:00,56.9,35.2,29.78,SW,215,11.0,16.0,44,0.00,,,0.00,Wunderground v.1.15,2013-01-27 21:22:00,
2013-01-27 14:27:00,57.0,34.1,29.78,WSW,252,11.0,16.0,42,0.00,,,0.00,Wunderground v.1.15,2013-01-27 21:27:00,
2013-01-27 14:37:00,56.9,35.2,29.78,SW,231,10.0,14.0,44,0.00,,,0.00,Wunderground v.1.15,2013-01-27 21:37:00,
2013-01-27 14:42:00,57.6,34.7,29.78,West,273,9.0,9.0,42,0.00,,,0.00,Wunderground v.1.15,2013-01-27 21:42:00,
2013-01-27 14:47:00,57.5,34.0,29.78,West,269,9.0,9.0,41,0.00,,,0.00,Wunderground v.1.15,2013-01-27 21:47:00,
2013-01-27 14:57:00,58.1,33.2,29.78,SSW,211,8.0,9.0,39,0.00,,,0.00,Wunderground v.1.15,2013-01-27 21:57:00,
2013-01-27 15:02:00,58.2,33.3,29.78,SW,217,10.0,10.0,39,0.00,,,0.00,Wunderground v.1.15,2013-01-27 22:02:00,
2013-01-27 15:07:00,58.4,33.5,29.78,West,269,11.0,11.0,39,0.00,,,0.00,Wunderground v.1.15,2013-01-27 22:07:00,
2013-01-27 15:17:00,58.1,33.2,29.78,WSW,237,11.0,16.0,39,0.00,,,0.00,Wunderground v.1.15,2013-01-27 22:17:00,
2013-01-27 15:22:00,58.1,33.2,29.77,WSW,238,12.0,17.0,39,0.00,,,0.00,Wunderground v.1.15,2013-01-27 22:22:00,
2013-01-27 15:32:00,58.6,33.7,29.77,WSW,246,11.0,11.0,39,0.00,,,0.00,Wunderground v.1.15,2013-01-27 22:32:00,
2013-01-27 15:37:00,59.0,34.1,29.77,West,276,9.0,11.0,39,0.00,,,0.00,Wunderground v.1.15,2013-01-27 22:37:00,
2013-01-27 15:47:00,59.0,33.4,29.77,SW,234,4.0,8.0,38,0.00,,,0.00,Wunderground v.1.15,2013-01-27 22:47:00,
2013-01-27 15:52:00,59.0,33.4,29.77,SW,234,5.0,5.0,38,0.00,,,0.00,Wunderground v.1.15,2013-01-27 22:52:00,
2013-01-27 15:57:00,59.0,32.7,29.76,WSW,252,6.0,10.0,37,0.00,,,0.00,Wunderground v.1.15,2013-01-27 22:57:00,
2013-01-27 16:02:00,59.2,32.9,29.76,WSW,248,6.0,14.0,37,0.00,,,0.00,Wunderground v.1.15,2013-01-27 23:02:00,
2013-01-27 16:12:00,59.0,33.4,29.76,SW,235,8.0,13.0,38,0.00,,,0.00,Wunderground v.1.15,2013-01-27 23:12:00,
2013-01-27 16:17:00,58.6,33.7,29.76,WSW,244,8.0,13.0,39,0.00,,,0.00,Wunderground v.1.15,2013-01-27 23:17:00,
2013-01-27 16:22:00,58.6,33.7,29.76,West,275,7.0,7.0,39,0.00,,,0.00,Wunderground v.1.15,2013-01-27 23:22:00,
2013-01-27 16:32:00,58.4,32.9,29.76,WSW,238,6.0,7.0,38,0.00,,,0.00,Wunderground v.1.15,2013-01-27 23:32:00,
2013-01-27 16:37:00,58.2,33.3,29.76,SW,236,8.0,8.0,39,0.00,,,0.00,Wunderground v.1.15,2013-01-27 23:37:00,
2013-01-27 16:42:00,58.2,33.3,29.76,SSW,211,6.0,6.0,39,0.00,,,0.00,Wunderground v.1.15,2013-01-27 23:42:00,
2013-01-27 16:52:00,58.4,33.5,29.76,WSW,253,3.0,12.0,39,0.00,,,0.00,Wunderground v.1.15,2013-01-27 23:52:00,
2013-01-27 16:57:00,58.1,33.2,29.76,West,266,4.0,12.0,39,0.00,,,0.00,Wunderground v.1.15,2013-01-27 23:57:00,
2013-01-27 17:07:00,57.5,34.0,29.77,WNW,284,2.0,10.0,41,0.00,,,0.00,Wunderground v.1.15,2013-01-28 00:07:00,
2013-01-27 17:12:00,56.3,35.2,29.77,NW,317,5.0,6.0,45,0.00,,,0.00,Wunderground v.1.15,2013-01-28 00:12:00,
2013-01-27 17:17:00,55.6,35.7,29.77,NW,310,5.0,6.0,47,0.00,,,0.00,Wunderground v.1.15,2013-01-28 00:17:00,
2013-01-27 17:27:00,55.2,36.4,29.77,WNW,290,1.0,2.0,49,0.00,,,0.00,Wunderground v.1.15,2013-01-28 00:27:00,
2013-01-27 17:32:00,54.9,36.6,29.77,NW,321,1.0,5.0,50,0.00,,,0.00,Wunderground v.1.15,2013-01-28 00:32:00,
2013-01-27 17:42:00,53.9,36.7,29.77,North,360,5.0,5.0,52,0.00,,,0.00,Wunderground v.1.15,2013-01-28 00:42:00,
2013-01-27 17:47:00,53.8,36.6,29.78,North,5,5.0,5.0,52,0.00,,,0.00,Wunderground v.1.15,2013-01-28 00:47:00,
2013-01-27 17:52:00,53.7,36.5,29.78,North,360,3.0,3.0,52,0.00,,,0.00,Wunderground v.1.15,2013-01-28 00:52:00,
2013-01-27 18:02:00,53.5,37.3,29.78,North,5,2.0,2.0,54,0.00,,,0.00,Wunderground v.1.15,2013-01-28 01:02:00,
2013-01-27 18:07:00,53.5,36.8,29.78,North,5,3.0,3.0,53,0.00,,,0.00,Wunderground v.1.15,2013-01-28 01:07:00,
2013-01-27 18:17:00,53.5,36.8,29.78,North,360,2.0,2.0,53,0.00,,,0.00,Wunderground v.1.15,2013-01-28 01:17:00,
2013-01-27 18:22:00,53.4,37.2,29.78,North,360,2.0,3.0,54,0.00,,,0.00,Wunderground v.1.15,2013-01-28 01:22:00,
2013-01-27 18:27:00,53.3,36.6,29.78,NE,36,2.0,4.0,53,0.00,,,0.00,Wunderground v.1.15,2013-01-28 01:27:00,
2013-01-27 18:32:00,53.2,36.5,29.79,NE,36,2.0,2.0,53,0.00,,,0.00,Wunderground v.1.15,2013-01-28 01:32:00,
2013-01-27 18:42:00,53.0,36.8,29.79,NE,36,1.0,1.0,54,0.00,,,0.00,Wunderground v.1.15,2013-01-28 01:42:00,
2013-01-27 18:47:00,53.0,36.8,29.79,NE,36,1.0,2.0,54,0.00,,,0.00,Wunderground v.1.15,2013-01-28 01:47:00,
2013-01-27 18:57:00,53.0,36.3,29.79,NE,36,0.0,1.0,53,0.00,,,0.00,Wunderground v.1.15,2013-01-28 01:57:00,
2013-01-27 19:02:00,52.9,36.7,29.79,NE,36,0.0,0.0,54,0.00,,,0.00,Wunderground v.1.15,2013-01-28 02:02:00,
2013-01-27 19:07:00,52.7,37.4,29.79,NE,36,1.0,3.0,56,0.00,,,0.00,Wunderground v.1.15,2013-01-28 02:07:00,
2013-01-27 19:17:00,52.5,37.2,29.79,NE,36,2.0,3.0,56,0.00,,,0.00,Wunderground v.1.15,2013-01-28 02:17:00,
2013-01-27 19:22:00,52.4,37.2,29.80,NE,36,1.0,1.0,56,0.00,,,0.00,Wunderground v.1.15,2013-01-28 02:22:00,
2013-01-27 19:32:00,52.4,37.6,29.79,NE,36,1.0,2.0,57,0.00,,,0.00,Wunderground v.1.15,2013-01-28 02:32:00,
2013-01-27 19:42:00,52.1,37.3,29.78,NE,36,1.0,1.0,57,0.00,,,0.00,Wunderground v.1.15,2013-01-28 02:42:00,
2013-01-27 19:47:00,52.0,37.2,29.78,NE,36,1.0,1.0,57,0.00,,,0.00,Wunderground v.1.15,2013-01-28 02:47:00,
2013-01-27 19:52:00,51.9,37.1,29.78,NE,36,1.0,1.0,57,0.00,,,0.00,Wunderground v.1.15,2013-01-28 02:52:00,
2013-01-27 20:02:00,51.8,37.0,29.79,NE,36,1.0,1.0,57,0.00,,,0.00,Wunderground v.1.15,2013-01-28 03:02:00,
2013-01-27 20:07:00,51.7,37.4,29.78,NE,36,0.0,1.0,58,0.00,,,0.00,Wunderground v.1.15,2013-01-28 03:07:00,
2013-01-27 20:17:00,50.9,38.7,29.78,NE,36,0.0,0.0,63,0.00,,,0.00,Wunderground v.1.15,2013-01-28 03:17:00,
2013-01-27 20:22:00,50.2,38.5,29.79,NE,36,0.0,0.0,64,0.00,,,0.00,Wunderground v.1.15,2013-01-28 03:22:00,
2013-01-27 20:27:00,49.8,38.5,29.79,NE,36,0.0,0.0,65,0.00,,,0.00,Wunderground v.1.15,2013-01-28 03:27:00,
2013-01-27 20:32:00,49.6,38.7,29.79,NE,36,0.0,0.0,66,0.00,,,0.00,Wunderground v.1.15,2013-01-28 03:32:00,
2013-01-27 20:42:00,49.3,38.0,29.79,NE,36,0.0,0.0,65,0.00,,,0.00,Wunderground v.1.15,2013-01-28 03:42:00,
2013-01-27 20:47:00,49.2,37.9,29.79,NE,36,0.0,0.0,65,0.00,,,0.00,Wunderground v.1.15,2013-01-28 03:47:00,
2013-01-27 20:57:00,49.0,37.3,29.79,NE,36,0.0,0.0,64,0.00,,,0.00,Wunderground v.1.15,2013-01-28 03:57:00,
2013-01-27 21:02:00,49.0,37.3,29.79,NE,36,0.0,0.0,64,0.00,,,0.00,Wunderground v.1.15,2013-01-28 04:02:00,
2013-01-27 21:07:00,49.2,37.5,29.80,NE,36,0.0,0.0,64,0.00,,,0.00,Wunderground v.1.15,2013-01-28 04:07:00,
2013-01-27 21:12:00,49.2,37.5,29.80,NE,36,0.0,0.0,64,0.00,,,0.00,Wunderground v.1.15,2013-01-28 04:12:00,
2013-01-27 21:22:00,48.7,37.8,29.80,NE,36,0.0,0.0,66,0.00,,,0.00,Wunderground v.1.15,2013-01-28 04:22:00,
2013-01-27 21:27:00,48.4,37.9,29.80,NE,36,0.0,0.0,67,0.00,,,0.00,Wunderground v.1.15,2013-01-28 04:27:00,
2013-01-27 21:36:00,47.9,37.5,29.80,NE,36,0.0,0.0,67,0.00,,,0.00,Wunderground v.1.15,2013-01-28 04:36:00,
2013-01-27 21:42:00,47.8,37.4,29.80,NE,36,0.0,0.0,67,0.00,,,0.00,Wunderground v.1.15,2013-01-28 04:42:00,
2013-01-27 21:47:00,47.7,37.3,29.80,NE,36,0.0,0.0,67,0.00,,,0.00,Wunderground v.1.15,2013-01-28 04:47:00,
2013-01-27 21:57:00,47.5,37.1,29.80,NE,36,0.0,0.0,67,0.00,,,0.00,Wunderground v.1.15,2013-01-28 04:57:00,
2013-01-27 22:02:00,47.4,37.0,29.79,NE,36,0.0,0.0,67,0.00,,,0.00,Wunderground v.1.15,2013-01-28 05:02:00,
2013-01-27 22:07:00,47.4,37.0,29.80,NE,36,0.0,0.0,67,0.00,,,0.00,Wunderground v.1.15,2013-01-28 05:07:00,
2013-01-27 22:17:00,47.2,36.8,29.80,NE,36,0.0,0.0,67,0.00,,,0.00,Wunderground v.1.15,2013-01-28 05:17:00,
2013-01-27 22:22:00,47.2,37.2,29.80,NE,36,0.0,0.0,68,0.00,,,0.00,Wunderground v.1.15,2013-01-28 05:22:00,
2013-01-27 22:32:00,46.7,37.1,29.80,NE,38,3.0,4.0,69,0.00,,,0.00,Wunderground v.1.15,2013-01-28 05:32:00,
2013-01-27 22:37:00,46.3,36.7,29.80,SE,140,4.0,5.0,69,0.00,,,0.00,Wunderground v.1.15,2013-01-28 05:37:00,
2013-01-27 22:42:00,46.0,36.4,29.80,SE,135,4.0,4.0,69,0.00,,,0.00,Wunderground v.1.15,2013-01-28 05:42:00,
2013-01-27 22:52:00,45.8,36.2,29.80,SE,137,4.0,5.0,69,0.00,,,0.00,Wunderground v.1.15,2013-01-28 05:52:00,
2013-01-27 22:57:00,45.8,36.2,29.80,SE,146,5.0,5.0,69,0.00,,,0.00,Wunderground v.1.15,2013-01-28 05:57:00,
2013-01-27 23:02:00,45.8,36.2,29.80,SE,143,6.0,8.0,69,0.00,,,0.00,Wunderground v.1.15,2013-01-28 06:02:00,
2013-01-27 23:12:00,45.8,36.2,29.80,SSE,153,6.0,6.0,69,0.00,,,0.00,Wunderground v.1.15,2013-01-28 06:12:00,
2013-01-27 23:17:00,45.9,35.9,29.80,SE,130,6.0,6.0,68,0.00,,,0.00,Wunderground v.1.15,2013-01-28 06:17:00,
2013-01-27 23:22:00,46.1,36.1,29.79,SE,141,6.0,6.0,68,0.00,,,0.00,Wunderground v.1.15,2013-01-28 06:22:00,
2013-01-27 23:32:00,46.0,35.3,29.79,SSE,166,6.0,6.0,66,0.00,,,0.00,Wunderground v.1.15,2013-01-28 06:32:00,
2013-01-27 23:37:00,45.9,35.2,29.79,SE,141,6.0,7.0,66,0.00,,,0.00,Wunderground v.1.15,2013-01-28 06:37:00,
2013-01-27 23:47:00,45.8,35.1,29.80,SSE,151,7.0,7.0,66,0.00,,,0.00,Wunderground v.1.15,2013-01-28 06:47:00,
2013-01-27 23:52:00,45.9,34.8,29.80,SSE,152,8.0,10.0,65,0.00,,,0.00,Wunderground v.1.15,2013-01-28 06:52:00,
2013-01-27 23:57:00,46.0,34.5,29.80,SSE,148,8.0,10.0,64,0.00,,,0.00,Wunderground v.1.15,2013-01-28 06:57:00,